Time;durP1;ratioP1;P1;durP2;ratioP2;P2;SDS_P1;SDS_P2;PMS_P1;PMS_P2;Temp;Humidity;BMP_temperature;BMP_pressure;BME280_temperature;BME280_humidity;BME280_pressure;Samples;Min_cycle;Max_cycle;Signal;HPM_P1;HPM_P2
2022/07/28 00:00:13;;;;;;;;;2.75;1.50;;;;;24.93;31.65;101120.44;4917780;28;45225;-44
2022/07/28 00:02:39;;;;;;;;;2.00;2.00;;;;;24.94;30.94;101126.56;4917778;28;45328;-43
2022/07/28 00:05:05;;;;;;;;;2.00;2.00;;;;;24.93;31.23;101117.78;4916440;28;45437;-43
2022/07/28 00:07:30;;;;;;;;;3.00;1.25;;;;;24.93;31.46;101111.63;4918145;28;45538;-44
2022/07/28 00:09:55;;;;;;;;;2.00;2.00;;;;;24.94;31.02;101105.34;4917352;28;45418;-44
2022/07/28 00:12:21;;;;;;;;;2.00;1.00;;;;;24.92;31.03;101110.78;4920820;28;48940;-43
2022/07/28 00:14:46;;;;;;;;;2.00;2.00;;;;;24.93;31.15;101103.66;4920922;28;45288;-43
2022/07/28 00:17:12;;;;;;;;;2.00;2.00;;;;;24.91;31.34;101109.06;4921083;28;45342;-43
2022/07/28 00:19:37;;;;;;;;;2.00;2.00;;;;;24.90;31.22;101120.63;4920883;28;45936;-43
2022/07/28 00:22:02;;;;;;;;;1.00;1.00;;;;;24.88;31.47;101109.28;4920677;28;45391;-43
2022/07/28 00:24:28;;;;;;;;;1.25;1.25;;;;;24.86;31.37;101095.28;4921091;28;45260;-43
2022/07/28 00:26:53;;;;;;;;;3.50;2.00;;;;;24.84;31.21;101091.91;4921246;28;45252;-43
2022/07/28 00:29:18;;;;;;;;;1.25;1.25;;;;;24.85;31.24;101089.16;4920841;28;46216;-43
2022/07/28 00:31:44;;;;;;;;;2.50;2.50;;;;;24.84;31.25;101090.09;4920590;28;45236;-51
2022/07/28 00:34:09;;;;;;;;;1.00;1.00;;;;;24.84;31.61;101097.22;4920959;28;45222;-48
2022/07/28 00:36:34;;;;;;;;;1.50;1.50;;;;;24.80;31.15;101078.03;4920944;28;45399;-43
2022/07/28 00:39:00;;;;;;;;;1.75;1.75;;;;;24.80;31.09;101082.47;4920498;28;46314;-43
2022/07/28 00:41:25;;;;;;;;;3.25;2.00;;;;;24.80;31.18;101078.03;4920757;28;46862;-45
2022/07/28 00:43:51;;;;;;;;;1.50;1.00;;;;;24.81;31.57;101078.88;4920649;28;45317;-44
2022/07/28 00:46:20;;;;;;;;;2.00;2.00;;;;;24.81;31.26;101076.22;4920957;28;45243;-44
2022/07/28 00:48:49;;;;;;;;;3.00;2.00;;;;;24.79;31.44;101067.53;4920199;28;46152;-42
2022/07/28 00:51:15;;;;;;;;;3.25;1.00;;;;;24.76;30.96;101067.72;4920505;28;45362;-43
2022/07/28 00:53:42;;;;;;;;;2.00;1.00;;;;;24.77;31.66;101069.44;4920362;28;45216;-43
2022/07/28 00:56:07;;;;;;;;;2.00;2.00;;;;;24.74;31.43;101073.16;4920723;28;45614;-43
2022/07/28 00:58:34;;;;;;;;;1.75;1.75;;;;;24.74;31.55;101073.16;4920372;28;45348;-44
2022/07/28 01:01:00;;;;;;;;;1.25;1.00;;;;;24.72;30.96;101064.44;4920092;28;45624;-42
2022/07/28 01:03:26;;;;;;;;;3.50;3.00;;;;;24.72;31.79;101064.44;4920799;28;45399;-42
2022/07/28 01:06:01;;;;;;;;;2.00;2.00;;;;;24.73;31.22;101060.00;4920260;28;45495;-44
2022/07/28 01:08:54;;;;;;;;;1.75;1.75;;;;;24.72;31.43;101056.50;4920563;28;45410;-45
2022/07/28 01:11:25;;;;;;;;;1.25;1.25;;;;;24.73;31.66;101054.72;4920178;28;45450;-44
2022/07/28 01:14:16;;;;;;;;;1.25;1.25;;;;;24.72;31.62;101056.50;4920065;28;45237;-45
2022/07/28 01:16:55;;;;;;;;;1.00;1.00;;;;;24.70;31.74;101050.44;4920211;28;45474;-43
2022/07/28 01:19:53;;;;;;;;;1.00;1.00;;;;;24.70;31.65;101046.00;4920152;28;46388;-49
2022/07/28 01:22:21;;;;;;;;;2.50;2.00;;;;;24.68;31.23;101042.63;4897229;28;45779;-43
2022/07/28 01:25:12;;;;;;;;;1.50;1.50;;;;;24.68;31.68;101045.25;4919910;28;45422;-43
2022/07/28 01:28:05;;;;;;;;;1.50;1.00;;;;;24.68;31.24;101050.56;4920173;28;45494;-44
2022/07/28 01:30:46;;;;;;;;;2.00;2.00;;;;;24.68;31.48;101049.69;4919878;28;46113;-45
2022/07/28 01:33:23;;;;;;;;;1.00;1.00;;;;;24.68;31.67;101047.06;4920020;28;45920;-43
2022/07/28 01:35:55;;;;;;;;;1.00;1.00;;;;;24.68;31.58;101052.34;4919632;28;45291;-44
2022/07/28 01:38:23;;;;;;;;;2.75;2.00;;;;;24.68;31.38;101039.97;4920232;28;45358;-44
2022/07/28 01:40:51;;;;;;;;;2.00;1.75;;;;;24.68;31.28;101037.31;4919385;28;46366;-43
2022/07/28 01:43:20;;;;;;;;;0.50;0.50;;;;;24.69;31.28;101046.13;4919855;28;45232;-43
2022/07/28 01:45:46;;;;;;;;;1.50;1.50;;;;;24.68;31.45;101039.97;4919454;28;45426;-43
2022/07/28 01:48:14;;;;;;;;;1.00;1.00;;;;;24.67;31.17;101035.59;4919939;28;45323;-43
2022/07/28 01:50:41;;;;;;;;;4.00;2.25;;;;;24.67;31.39;101030.28;4919525;28;46019;-44
2022/07/28 01:53:11;;;;;;;;;1.75;1.00;;;;;24.68;31.32;101037.31;4919730;28;45297;-46
2022/07/28 01:55:40;;;;;;;;;1.75;1.75;;;;;24.68;31.39;101031.16;4919787;28;45506;-44
2022/07/28 01:58:06;;;;;;;;;2.00;0.50;;;;;24.67;31.63;101038.22;4919761;28;45234;-43
2022/07/28 02:00:33;;;;;;;;;2.00;2.00;;;;;24.68;31.27;101031.16;4919303;28;46436;-43
2022/07/28 02:03:04;;;;;;;;;0.25;0.25;;;;;24.67;31.33;101024.97;4919679;28;45604;-44
2022/07/28 02:05:32;;;;;;;;;1.00;1.00;;;;;24.66;31.26;101028.59;4919603;28;45355;-43
2022/07/28 02:08:00;;;;;;;;;2.75;1.75;;;;;24.68;31.45;101034.66;4919797;28;45219;-43
2022/07/28 02:10:27;;;;;;;;;1.25;1.25;;;;;24.67;31.33;101030.28;4919618;28;46100;-44
2022/07/28 02:12:55;;;;;;;;;2.00;2.00;;;;;24.66;31.87;101025.09;4919131;28;45771;-47
2022/07/28 02:15:21;;;;;;;;;1.00;1.00;;;;;24.67;31.74;101022.34;4919425;28;45403;-44
2022/07/28 02:17:49;;;;;;;;;1.00;1.00;;;;;24.67;31.89;101021.50;4919378;28;45563;-46
2022/07/28 02:20:17;;;;;;;;;2.00;1.50;;;;;24.65;31.73;101016.28;4919221;28;46322;-44
2022/07/28 02:22:44;;;;;;;;;1.00;1.00;;;;;24.64;31.36;101006.63;4901887;28;45881;-43
2022/07/28 02:25:11;;;;;;;;;2.00;2.00;;;;;24.65;31.68;100999.56;4919307;28;45489;-44
2022/07/28 02:27:45;;;;;;;;;1.00;1.00;;;;;24.65;31.57;101013.63;4919436;28;45185;-43
2022/07/28 02:30:17;;;;;;;;;3.00;1.00;;;;;24.65;31.51;101007.50;4918923;28;46216;-43
2022/07/28 02:32:45;;;;;;;;;1.50;1.50;;;;;24.65;32.03;101004.84;4917360;28;45367;-46
2022/07/28 02:35:24;;;;;;;;;2.50;2.50;;;;;24.65;31.86;101007.50;4919037;28;45321;-45
2022/07/28 02:37:56;;;;;;;;;1.00;1.00;;;;;24.63;31.71;101007.63;4919160;28;45391;-47
2022/07/28 02:40:22;;;;;;;;;2.25;2.25;;;;;24.63;31.37;101002.31;4919184;28;45284;-44
2022/07/28 02:42:49;;;;;;;;;2.75;2.00;;;;;24.63;31.93;101002.31;4918687;28;45197;-50
2022/07/28 02:45:17;;;;;;;;;0.00;0.00;;;;;24.63;31.50;101004.97;4919061;28;45281;-44
2022/07/28 02:47:50;;;;;;;;;2.00;2.00;;;;;24.62;31.88;100999.75;4918961;28;45553;-44
2022/07/28 02:50:20;;;;;;;;;1.00;1.00;;;;;24.61;31.84;100998.94;4918739;28;46918;-44
2022/07/28 02:52:48;;;;;;;;;1.00;1.00;;;;;24.62;31.91;100997.97;4918394;28;45678;-43
2022/07/28 02:55:15;;;;;;;;;1.50;1.50;;;;;24.62;31.56;100987.38;4918905;28;45252;-43
2022/07/28 02:57:42;;;;;;;;;1.00;1.00;;;;;24.62;31.97;100997.13;4918975;28;45427;-54
2022/07/28 03:00:09;;;;;;;;;1.25;1.25;;;;;24.61;31.50;100996.28;4918676;28;45464;-47
2022/07/28 03:02:35;;;;;;;;;2.00;2.00;;;;;24.61;31.63;100993.63;4918679;28;45372;-44
2022/07/28 03:05:02;;;;;;;;;2.00;2.00;;;;;24.62;31.96;100994.47;4918800;28;45369;-55
2022/07/28 03:07:29;;;;;;;;;1.00;1.00;;;;;24.62;31.56;100995.31;4919196;28;45335;-55
2022/07/28 03:09:56;;;;;;;;;1.50;1.00;;;;;24.62;31.53;101000.63;4918054;28;46181;-51
2022/07/28 03:12:21;;;;;;;;;1.50;1.50;;;;;24.62;31.64;100989.16;4918539;28;45673;-52
2022/07/28 03:14:46;;;;;;;;;2.00;1.00;;;;;24.61;31.69;100998.06;4918392;28;46160;-52
2022/07/28 03:17:12;;;;;;;;;3.75;2.00;;;;;24.61;31.48;100998.06;4918811;28;45981;-48
2022/07/28 03:19:37;;;;;;;;;2.00;2.00;;;;;24.60;31.70;100999.00;4918248;28;46973;-44
2022/07/28 03:22:04;;;;;;;;;2.50;1.00;;;;;24.60;31.58;100999.88;4918272;28;45388;-49
2022/07/28 03:24:34;;;;;;;;;2.00;2.00;;;;;24.59;31.66;100998.19;4918898;28;45225;-50
2022/07/28 03:27:30;;;;;;;;;2.00;2.00;;;;;24.58;31.71;100999.13;4918591;28;45595;-47
2022/07/28 03:30:06;;;;;;;;;1.00;1.00;;;;;24.59;32.05;100998.19;4917724;28;46978;-51
2022/07/28 03:32:45;;;;;;;;;2.00;1.75;;;;;24.60;31.85;100997.22;4918627;28;45431;-44
2022/07/28 03:35:12;;;;;;;;;2.00;2.00;;;;;24.59;32.24;100995.53;4918421;28;45312;-48
2022/07/28 03:37:55;;;;;;;;;2.00;2.00;;;;;24.59;32.18;100990.22;4918550;28;45537;-44
2022/07/28 03:40:25;;;;;;;;;3.00;1.75;;;;;24.59;31.67;100998.19;4918027;28;45420;-44
2022/07/28 03:42:51;;;;;;;;;2.00;2.00;;;;;24.59;32.28;100994.66;4917667;28;45724;-46
2022/07/28 03:45:17;;;;;;;;;1.25;1.25;;;;;24.58;32.08;100987.69;4918384;28;45469;-43
2022/07/28 03:47:55;;;;;;;;;2.25;2.25;;;;;24.57;32.18;100988.66;4921573;28;45495;-44
2022/07/28 03:50:24;;;;;;;;;2.00;2.00;;;;;24.58;32.27;100993.84;4921243;28;46260;-45
2022/07/28 03:52:50;;;;;;;;;1.50;1.50;;;;;24.57;31.75;100996.59;4921025;28;45366;-44
2022/07/28 03:55:16;;;;;;;;;5.00;3.00;;;;;24.57;32.31;100991.31;4921522;28;45319;-45
2022/07/28 03:57:41;;;;;;;;;2.25;2.25;;;;;24.56;31.67;100987.78;4921384;28;45470;-43
2022/07/28 04:00:08;;;;;;;;;2.75;2.75;;;;;24.55;31.75;100984.31;4921391;28;45264;-41
2022/07/28 04:02:33;;;;;;;;;2.00;2.00;;;;;24.54;31.97;100990.56;4921471;28;45391;-44
2022/07/28 04:04:59;;;;;;;;;3.00;3.00;;;;;24.54;32.38;100997.66;4921485;28;45387;-43
2022/07/28 04:07:25;;;;;;;;;3.50;2.00;;;;;24.54;32.32;100997.66;4921557;28;45580;-50
2022/07/28 04:09:50;;;;;;;;;4.00;2.75;;;;;24.54;32.37;100995.84;4920710;28;46055;-45
2022/07/28 04:12:15;;;;;;;;;2.00;2.00;;;;;24.52;31.92;100988.97;4919522;28;55609;-44
2022/07/28 04:14:40;;;;;;;;;4.75;2.00;;;;;24.51;32.48;100998.72;4920745;28;47316;-43
2022/07/28 04:17:06;;;;;;;;;2.00;2.00;;;;;24.51;32.03;100993.41;4921233;28;45566;-43
2022/07/28 04:19:31;;;;;;;;;4.25;2.50;;;;;24.50;32.15;100990.88;4921304;28;46055;-42
2022/07/28 04:21:56;;;;;;;;;2.00;2.00;;;;;24.50;31.81;100985.59;4920698;28;45351;-43
2022/07/28 04:24:22;;;;;;;;;2.75;2.75;;;;;24.49;31.82;100990.03;4919616;28;45228;-43
2022/07/28 04:26:47;;;;;;;;;3.50;3.50;;;;;24.49;31.94;100989.19;4920834;28;45477;-43
2022/07/28 04:29:12;;;;;;;;;2.25;2.25;;;;;24.49;31.94;100990.03;4920724;28;45983;-43
2022/07/28 04:31:38;;;;;;;;;2.75;2.75;;;;;24.49;31.96;100983.88;4920537;28;48763;-46
2022/07/28 04:34:03;;;;;;;;;2.00;2.00;;;;;24.47;32.01;100977.84;4920999;28;45474;-43
2022/07/28 04:36:29;;;;;;;;;4.50;3.00;;;;;24.46;32.25;100982.31;4921008;28;45180;-44
2022/07/28 04:38:56;;;;;;;;;4.75;3.00;;;;;24.47;31.97;100985.78;4920399;28;45434;-44
2022/07/28 04:41:21;;;;;;;;;3.00;3.00;;;;;24.46;32.52;100981.44;4920686;28;45264;-43
2022/07/28 04:43:46;;;;;;;;;2.00;2.00;;;;;24.46;32.03;100978.78;4920420;28;45408;-44
2022/07/28 04:46:12;;;;;;;;;4.25;2.00;;;;;24.45;32.17;100977.09;4920981;28;45469;-44
2022/07/28 04:48:37;;;;;;;;;3.00;3.00;;;;;24.46;32.04;100974.38;4920509;28;46375;-43
2022/07/28 04:51:02;;;;;;;;;4.00;3.00;;;;;24.45;32.57;100979.75;4920206;28;53219;-45
2022/07/28 04:53:29;;;;;;;;;2.50;2.50;;;;;24.45;32.67;100977.09;4919447;28;45355;-44
2022/07/28 04:55:56;;;;;;;;;3.25;3.25;;;;;24.45;32.25;100979.75;4904113;28;45182;-43
2022/07/28 04:58:22;;;;;;;;;3.50;3.00;;;;;24.44;32.47;100975.41;4900107;29;46418;-42
2022/07/28 05:00:48;;;;;;;;;3.75;3.75;;;;;24.45;32.54;100974.44;4901414;29;45391;-44
2022/07/28 05:03:13;;;;;;;;;4.00;4.00;;;;;24.45;32.38;100982.41;4901373;29;45408;-45
2022/07/28 05:05:38;;;;;;;;;4.50;3.25;;;;;24.41;32.74;100970.34;4901591;29;45264;-44
2022/07/28 05:08:04;;;;;;;;;3.50;3.50;;;;;24.45;32.54;100982.41;4901168;29;46306;-43
2022/07/28 05:10:29;;;;;;;;;3.00;3.00;;;;;24.44;32.23;100986.00;4901052;29;45323;-44
2022/07/28 05:12:55;;;;;;;;;3.00;3.00;;;;;24.44;32.50;100978.03;4901329;29;45404;-44
2022/07/28 05:15:21;;;;;;;;;4.00;2.00;;;;;24.43;32.97;100979.88;4901327;28;45375;-44
2022/07/28 05:17:46;;;;;;;;;2.00;2.00;;;;;24.43;32.68;100974.56;4901178;29;45426;-45
2022/07/28 05:20:12;;;;;;;;;2.50;2.50;;;;;24.44;32.72;100980.69;4900865;29;45294;-43
2022/07/28 05:22:46;;;;;;;;;4.00;4.00;;;;;24.42;32.87;100977.34;4901211;28;45406;-44
2022/07/28 05:25:17;;;;;;;;;2.00;2.00;;;;;24.43;32.53;100987.81;4901112;28;45455;-43
2022/07/28 05:27:43;;;;;;;;;4.00;3.00;;;;;24.41;32.68;100983.59;4901054;29;45465;-45
2022/07/28 05:30:10;;;;;;;;;4.00;3.00;;;;;24.41;32.43;100986.22;4900727;29;45359;-43
2022/07/28 05:32:35;;;;;;;;;3.00;3.00;;;;;24.41;32.93;100983.59;4901389;29;45428;-44
2022/07/28 05:35:01;;;;;;;;;3.75;3.00;;;;;24.41;32.98;100980.94;4900676;28;45632;-45
2022/07/28 05:37:26;;;;;;;;;3.50;3.50;;;;;24.38;32.54;100980.19;4900734;29;45976;-45
2022/07/28 05:39:51;;;;;;;;;3.00;2.75;;;;;24.38;32.81;100984.63;4900810;29;45388;-44
2022/07/28 05:42:17;;;;;;;;;3.75;3.50;;;;;24.36;32.50;100987.38;4900712;29;45300;-49
2022/07/28 05:44:42;;;;;;;;;6.25;3.50;;;;;24.35;32.68;100980.41;4900693;29;47380;-46
2022/07/28 05:47:07;;;;;;;;;3.75;3.75;;;;;24.33;32.59;100979.66;4900241;28;49182;-44
2022/07/28 05:49:32;;;;;;;;;3.00;3.00;;;;;24.30;33.01;100982.53;4900434;29;54659;-44
2022/07/28 05:51:58;;;;;;;;;2.00;2.00;;;;;24.28;32.66;100979.13;4900376;29;46256;-44
2022/07/28 05:54:23;;;;;;;;;4.00;3.00;;;;;24.27;32.54;100982.72;4900738;29;45463;-43
2022/07/28 05:56:49;;;;;;;;;0.00;0.00;;;;;24.26;33.21;100981.03;4900583;29;45391;-43
2022/07/28 05:59:15;;;;;;;;;4.25;2.25;;;;;24.24;32.77;100978.50;4899358;29;45178;-44
2022/07/28 06:01:40;;;;;;;;;3.00;2.00;;;;;24.23;32.85;100981.25;4900572;28;45257;-43
2022/07/28 06:04:06;;;;;;;;;2.00;2.00;;;;;24.21;32.87;100976.06;4900752;29;45185;-49
2022/07/28 06:06:31;;;;;;;;;3.50;3.50;;;;;24.19;33.23;100983.25;4900184;29;48529;-46
2022/07/28 06:08:56;;;;;;;;;3.00;3.00;;;;;24.18;33.07;100978.06;4899698;29;45238;-45
2022/07/28 06:11:22;;;;;;;;;4.00;4.00;;;;;24.17;32.84;100979.03;4900272;29;45243;-44
2022/07/28 06:13:47;;;;;;;;;6.00;4.75;;;;;24.16;33.08;100979.97;4900698;29;45351;-45
2022/07/28 06:16:13;;;;;;;;;6.25;5.50;;;;;24.15;33.28;100981.75;4899598;29;45919;-46
2022/07/28 06:18:38;;;;;;;;;4.75;4.75;;;;;24.16;32.88;100987.91;4900166;29;45205;-44
2022/07/28 06:21:04;;;;;;;;;5.00;5.00;;;;;24.13;33.11;100981.03;4900157;29;45414;-43
2022/07/28 06:23:29;;;;;;;;;4.50;4.50;;;;;24.12;33.39;100983.78;4900485;29;45377;-44
2022/07/28 06:25:54;;;;;;;;;4.00;4.00;;;;;24.12;33.14;100984.63;4899969;29;46153;-44
2022/07/28 06:28:20;;;;;;;;;7.75;5.00;;;;;24.12;32.97;100981.13;4899448;29;53004;-46
2022/07/28 06:30:47;;;;;;;;;4.00;4.00;;;;;24.11;33.46;100979.44;4900005;29;45392;-44
2022/07/28 06:33:13;;;;;;;;;4.00;4.00;;;;;24.11;33.37;100979.44;4900105;29;45610;-43
2022/07/28 06:35:38;;;;;;;;;5.25;4.00;;;;;24.09;33.24;100983.03;4899742;29;46363;-44
2022/07/28 06:38:03;;;;;;;;;3.25;3.00;;;;;24.09;33.46;100987.50;4899986;29;45844;-44
2022/07/28 06:40:30;;;;;;;;;4.00;3.00;;;;;24.07;33.15;100987.59;4900171;29;45258;-44
2022/07/28 06:42:55;;;;;;;;;5.50;5.00;;;;;24.06;33.25;100979.75;4900116;29;45506;-43
2022/07/28 06:45:21;;;;;;;;;4.25;3.75;;;;;24.06;33.50;100983.25;4898546;29;47218;-42
2022/07/28 06:47:47;;;;;;;;;5.25;3.25;;;;;24.06;33.45;100988.56;4899738;29;45229;-45
2022/07/28 06:50:12;;;;;;;;;5.50;3.75;;;;;24.07;33.57;100984.97;4899540;29;45249;-45
2022/07/28 06:52:38;;;;;;;;;6.00;4.25;;;;;24.09;33.31;100988.31;4899162;29;45608;-43
2022/07/28 06:55:05;;;;;;;;;5.00;4.00;;;;;24.13;33.49;100988.13;4899458;29;46198;-42
2022/07/28 06:57:32;;;;;;;;;3.25;2.25;;;;;24.16;33.38;100982.63;4899657;29;45876;-43
2022/07/28 06:59:57;;;;;;;;;5.50;3.50;;;;;24.16;33.69;100985.28;4899140;29;45444;-42
2022/07/28 07:02:23;;;;;;;;;5.25;3.25;;;;;24.21;33.37;100983.13;4899930;29;45565;-43
2022/07/28 07:04:50;;;;;;;;;5.25;5.00;;;;;24.23;33.38;100989.19;4899210;29;54840;-43
2022/07/28 07:07:16;;;;;;;;;5.50;4.25;;;;;24.23;33.38;100989.19;4899355;29;45311;-42
2022/07/28 07:09:41;;;;;;;;;5.00;4.75;;;;;24.24;33.51;100996.19;4902743;28;45423;-45
2022/07/28 07:12:06;;;;;;;;;6.00;4.50;;;;;24.22;32.94;100987.47;4918833;28;45542;-41
2022/07/28 07:14:32;;;;;;;;;5.00;4.00;;;;;24.24;33.61;100996.19;4900306;28;45363;-44
2022/07/28 07:16:57;;;;;;;;;6.00;6.00;;;;;24.26;33.23;100996.06;4898567;29;45603;-49
2022/07/28 07:19:23;;;;;;;;;9.25;5.00;;;;;24.25;33.25;100992.59;4899402;29;45344;-42
2022/07/28 07:21:49;;;;;;;;;5.50;4.00;;;;;24.24;33.30;100986.44;4898510;29;45214;-47
2022/07/28 07:24:15;;;;;;;;;6.25;5.00;;;;;24.24;33.49;100999.69;4898897;29;46120;-46
2022/07/28 07:26:40;;;;;;;;;6.25;6.25;;;;;24.24;32.98;100996.19;4898501;29;45380;-42
2022/07/28 07:29:06;;;;;;;;;6.00;6.00;;;;;24.26;32.87;100998.72;4899291;29;45322;-44
2022/07/28 07:31:32;;;;;;;;;6.00;5.25;;;;;24.26;33.46;100996.94;4899395;29;45649;-45
2022/07/28 07:33:58;;;;;;;;;5.50;5.00;;;;;24.27;33.11;100995.13;4898805;29;46089;-43
2022/07/28 07:36:23;;;;;;;;;6.50;4.25;;;;;24.27;33.04;100998.63;4912432;28;46022;-44
2022/07/28 07:38:49;;;;;;;;;6.00;6.00;;;;;24.26;33.42;100999.56;4916914;28;45444;-43
2022/07/28 07:41:14;;;;;;;;;5.00;5.00;;;;;24.27;33.49;101001.28;4915633;28;45535;-50
2022/07/28 07:43:40;;;;;;;;;4.75;4.50;;;;;24.27;32.98;100995.97;4917135;28;45556;-45
2022/07/28 07:46:06;;;;;;;;;6.00;5.00;;;;;24.29;33.05;100993.22;4916759;28;45879;-45
2022/07/28 07:48:31;;;;;;;;;5.75;5.75;;;;;24.30;33.51;100990.47;4917296;28;45325;-45
2022/07/28 07:50:56;;;;;;;;;6.50;5.25;;;;;24.32;33.25;100993.84;4916771;28;45302;-46
2022/07/28 07:53:23;;;;;;;;;7.75;6.00;;;;;24.32;33.52;100993.84;4916773;28;45339;-52
2022/07/28 07:55:48;;;;;;;;;6.00;6.00;;;;;24.34;33.51;100999.88;4916964;28;45673;-49
2022/07/28 07:58:14;;;;;;;;;8.00;6.00;;;;;24.35;33.11;100996.28;4915772;28;45767;-45
2022/07/28 08:00:39;;;;;;;;;7.50;7.00;;;;;24.37;33.10;101002.34;4916959;28;45520;-50
2022/07/28 08:03:05;;;;;;;;;8.00;6.00;;;;;24.37;33.08;100996.16;4916645;28;46954;-45
2022/07/28 08:05:31;;;;;;;;;8.00;6.75;;;;;24.36;33.50;100995.34;4915778;28;45479;-42
2022/07/28 08:07:56;;;;;;;;;5.50;5.50;;;;;24.38;33.36;100990.78;4916320;28;45358;-43
2022/07/28 08:10:23;;;;;;;;;6.00;6.00;;;;;24.38;33.32;100989.91;4916876;28;45414;-43
2022/07/28 08:12:48;;;;;;;;;7.50;5.75;;;;;24.39;33.05;100989.84;4916711;28;45427;-46
2022/07/28 08:15:14;;;;;;;;;5.75;5.75;;;;;24.39;33.46;100984.53;4916066;28;45390;-43
2022/07/28 08:17:39;;;;;;;;;6.25;6.00;;;;;24.41;33.32;100986.22;4916653;28;45402;-43
2022/07/28 08:20:05;;;;;;;;;5.00;5.00;;;;;24.41;33.42;100986.22;4916975;28;45437;-43
2022/07/28 08:22:30;;;;;;;;;6.75;6.75;;;;;24.40;33.12;100974.78;4916481;28;45371;-43
2022/07/28 08:24:59;;;;;;;;;6.00;6.00;;;;;24.43;33.30;100984.31;4916052;28;45181;-43
2022/07/28 08:27:24;;;;;;;;;10.50;7.75;;;;;24.43;33.60;100976.34;4915761;28;45650;-42
2022/07/28 08:29:50;;;;;;;;;6.25;6.00;;;;;24.44;33.08;100976.25;4916290;28;45688;-42
2022/07/28 08:32:15;;;;;;;;;9.00;5.00;;;;;24.44;33.36;100978.03;4917207;28;45420;-42
2022/07/28 09:12:15;;;;;;;;;7.00;7.00;;;;;24.52;33.48;100965.97;5178204;23;45579;-47
2022/07/28 09:14:41;;;;;;;;;7.75;7.00;;;;;24.53;33.38;100959.72;4900663;29;45320;-47
2022/07/28 09:17:06;;;;;;;;;6.25;6.25;;;;;24.55;33.02;100968.41;4899645;28;46306;-47
2022/07/28 09:19:32;;;;;;;;;8.50;7.50;;;;;24.55;33.34;100960.47;4900061;29;45337;-48
2022/07/28 09:21:58;;;;;;;;;9.25;7.00;;;;;24.58;33.27;100967.34;4900296;28;45348;-47
2022/07/28 09:24:40;;;;;;;;;8.75;8.00;;;;;24.60;33.03;100968.09;4883470;29;45481;-46
2022/07/28 09:27:08;;;;;;;;;8.00;7.00;;;;;24.62;33.19;100968.81;4892603;28;46561;-47
2022/07/28 09:29:36;;;;;;;;;11.50;6.50;;;;;24.64;32.95;100968.72;4896279;28;45461;-46
2022/07/28 09:32:02;;;;;;;;;10.25;5.75;;;;;24.65;33.44;100967.75;4909098;28;45471;-46
2022/07/28 09:34:38;;;;;;;;;6.00;6.00;;;;;24.65;33.08;100965.09;4902377;28;45508;-47
2022/07/28 09:37:03;;;;;;;;;5.75;5.00;;;;;24.67;33.39;100966.69;4899612;29;45573;-47
2022/07/28 09:39:33;;;;;;;;;5.50;5.00;;;;;24.69;32.95;100970.09;4903567;28;45481;-48
2022/07/28 09:41:59;;;;;;;;;6.00;4.25;;;;;24.67;32.77;100956.06;4900101;29;45362;-48
2022/07/28 09:44:26;;;;;;;;;6.50;6.00;;;;;24.72;32.94;100954.94;4899335;29;45364;-47
2022/07/28 09:46:52;;;;;;;;;4.25;4.25;;;;;24.72;32.30;100958.44;4899510;29;46352;-50
2022/07/28 09:49:18;;;;;;;;;5.50;5.50;;;;;24.75;33.01;100952.91;4899357;29;45437;-47
2022/07/28 09:52:00;;;;;;;;;4.50;4.25;;;;;24.78;32.60;100957.16;4899978;28;45417;-48
2022/07/28 09:54:25;;;;;;;;;7.50;6.00;;;;;24.80;32.69;100945.50;4899945;28;45398;-48
2022/07/28 09:56:51;;;;;;;;;5.25;5.25;;;;;24.82;33.11;100943.56;4899566;29;46992;-48
2022/07/28 09:59:17;;;;;;;;;6.25;5.25;;;;;24.83;32.70;100945.25;4899403;29;45379;-47
2022/07/28 10:02:13;;;;;;;;;8.00;6.00;;;;;24.89;32.49;100943.97;4899865;29;45393;-47
2022/07/28 10:04:40;;;;;;;;;5.00;5.00;;;;;24.88;32.91;100931.66;4897368;28;45672;-49
2022/07/28 10:07:15;;;;;;;;;6.00;5.75;;;;;24.92;32.96;100946.41;4918287;28;45459;-48
2022/07/28 10:09:42;;;;;;;;;5.50;4.75;;;;;24.94;32.59;100947.13;4918319;28;45787;-47
2022/07/28 10:12:24;;;;;;;;;4.00;4.00;;;;;24.96;32.65;100947.88;4918304;28;45335;-51
2022/07/28 10:14:51;;;;;;;;;4.25;4.25;;;;;24.96;33.16;100939.94;4919467;28;45370;-47
2022/07/28 10:17:31;;;;;;;;;4.50;4.00;;;;;24.96;32.69;100942.56;4918577;28;45715;-48
2022/07/28 10:19:59;;;;;;;;;5.00;5.00;;;;;24.98;32.40;100945.09;4910227;28;45776;-46
2022/07/28 10:22:28;;;;;;;;;5.00;5.00;;;;;24.98;32.32;100939.81;4900172;28;45343;-47
2022/07/28 10:25:12;;;;;;;;;4.00;4.00;;;;;24.99;32.42;100936.19;4900111;28;45224;-45
2022/07/28 10:27:40;;;;;;;;;5.25;5.00;;;;;24.98;32.96;100937.97;4899861;29;45597;-48
2022/07/28 10:30:06;;;;;;;;;6.00;5.00;;;;;25.00;32.88;100933.41;4899282;29;45306;-49
2022/07/28 10:32:40;;;;;;;;;3.75;3.50;;;;;25.01;32.58;100937.78;4900116;28;45390;-47
2022/07/28 10:35:11;;;;;;;;;5.75;3.75;;;;;25.03;32.64;100934.16;4899339;29;45510;-49
2022/07/28 10:37:57;;;;;;;;;6.00;5.00;;;;;25.03;32.10;100931.50;4899623;29;46409;-49
2022/07/28 10:40:30;;;;;;;;;5.75;3.00;;;;;25.05;32.47;100932.25;4899829;29;45699;-50
2022/07/28 10:42:57;;;;;;;;;3.00;3.00;;;;;25.05;32.51;100929.59;4900076;29;45392;-48
2022/07/28 10:45:23;;;;;;;;;5.00;2.75;;;;;25.05;32.51;100932.25;4898380;29;45329;-51
2022/07/28 10:47:49;;;;;;;;;3.75;3.75;;;;;25.06;32.28;100934.78;4899215;29;45450;-46
2022/07/28 10:50:15;;;;;;;;;4.50;3.00;;;;;25.06;31.60;100932.13;4902048;28;45333;-49
2022/07/28 10:52:41;;;;;;;;;3.00;3.00;;;;;25.07;32.58;100938.28;4903085;28;45332;-54
2022/07/28 10:55:37;;;;;;;;;5.00;3.50;;;;;25.08;32.09;100943.47;4899322;29;45506;-49
2022/07/28 10:58:08;;;;;;;;;3.00;3.00;;;;;25.09;32.11;100933.69;4898991;29;46219;-47
2022/07/28 11:00:42;;;;;;;;;3.00;3.00;;;;;25.09;32.46;100926.59;4899059;28;45666;-52
2022/07/28 11:03:07;;;;;;;;;5.00;3.00;;;;;25.11;32.39;100924.69;4899116;29;45368;-52
2022/07/28 11:05:37;;;;;;;;;3.00;3.00;;;;;25.12;32.40;100928.19;4900937;28;45504;-46
2022/07/28 11:08:13;;;;;;;;;3.50;3.00;;;;;25.11;32.47;100931.78;4918034;28;46193;-46
2022/07/28 11:10:50;;;;;;;;;4.50;4.00;;;;;25.13;32.31;100927.22;4918420;28;45806;-46
2022/07/28 11:13:29;;;;;;;;;3.25;3.00;;;;;25.14;31.92;100931.56;4918220;28;45354;-46
2022/07/28 11:15:56;;;;;;;;;1.75;1.75;;;;;25.14;31.86;100932.41;4918333;28;45451;-51
2022/07/28 11:18:22;;;;;;;;;3.00;3.00;;;;;25.15;32.22;100922.66;4918225;28;46538;-51
2022/07/28 11:20:56;;;;;;;;;3.00;3.00;;;;;25.15;32.09;100927.97;4917078;28;45378;-50
2022/07/28 11:23:41;;;;;;;;;3.25;3.25;;;;;25.15;32.18;100928.78;4916969;28;45348;-51
2022/07/28 11:26:19;;;;;;;;;3.00;3.00;;;;;25.16;31.98;100933.13;4918591;28;45461;-50
2022/07/28 11:29:02;;;;;;;;;4.00;2.50;;;;;25.18;32.29;100933.03;4918344;28;47185;-48
2022/07/28 11:31:42;;;;;;;;;4.00;3.00;;;;;25.17;31.55;100928.69;4918396;28;45788;-48
2022/07/28 11:34:08;;;;;;;;;3.00;3.00;;;;;25.17;32.19;100924.22;4918203;28;45310;-49
2022/07/28 11:37:09;;;;;;;;;3.50;3.50;;;;;25.19;31.72;100918.78;4918489;28;45677;-47
2022/07/28 11:39:38;;;;;;;;;5.75;3.50;;;;;25.17;31.69;100915.44;4918083;28;46153;-47
2022/07/28 11:42:26;;;;;;;;;5.00;3.00;;;;;25.19;31.97;100917.97;4917861;28;45719;-48
2022/07/28 11:44:53;;;;;;;;;6.00;3.25;;;;;25.18;31.44;100917.13;4918372;28;45425;-48
2022/07/28 11:47:21;;;;;;;;;5.25;2.50;;;;;25.19;31.93;100920.63;4918186;28;45439;-46
2022/07/28 11:50:13;;;;;;;;;5.00;3.00;;;;;25.18;31.49;100922.44;4918026;28;46279;-47
2022/07/28 11:52:39;;;;;;;;;3.00;2.00;;;;;25.19;31.88;100908.19;4918089;28;45346;-50
2022/07/28 11:55:05;;;;;;;;;4.00;4.00;;;;;25.18;31.98;100911.81;4917922;28;45429;-48
2022/07/28 11:57:38;;;;;;;;;1.25;1.00;;;;;25.20;31.84;100915.19;4918598;28;45306;-47
2022/07/28 12:00:05;;;;;;;;;3.00;3.00;;;;;25.20;31.55;100914.34;4917639;28;46203;-47
2022/07/28 12:02:33;;;;;;;;;3.00;3.00;;;;;25.22;32.05;100915.94;4918048;28;45640;-50
2022/07/28 12:05:02;;;;;;;;;3.00;3.00;;;;;25.23;31.91;100909.66;4917835;28;45287;-49
2022/07/28 12:07:42;;;;;;;;;4.25;3.00;;;;;25.23;31.62;100909.66;4919927;28;45398;-54